sensor_id;sensor_type;location;lat;lon;timestamp;P1;durP1;ratioP1;P2;durP2;ratioP2
4794;SDS011;2411;47.060;15.064;2023-06-26T00:01:42;9.43;;;8.50;;
4794;SDS011;2411;47.060;15.064;2023-06-26T00:04:09;9.40;;;8.50;;
4794;SDS011;2411;47.060;15.064;2023-06-26T00:06:41;10.37;;;9.00;;
4794;SDS011;2411;47.060;15.064;2023-06-26T00:09:09;10.87;;;9.73;;
4794;SDS011;2411;47.060;15.064;2023-06-26T00:11:36;10.47;;;9.47;;
4794;SDS011;2411;47.060;15.064;2023-06-26T00:14:03;9.47;;;8.33;;
4794;SDS011;2411;47.060;15.064;2023-06-26T00:16:31;10.30;;;8.60;;
4794;SDS011;2411;47.060;15.064;2023-06-26T00:18:58;9.67;;;8.70;;
4794;SDS011;2411;47.060;15.064;2023-06-26T00:21:26;10.50;;;9.43;;
4794;SDS011;2411;47.060;15.064;2023-06-26T00:23:54;12.33;;;9.27;;
4794;SDS011;2411;47.060;15.064;2023-06-26T00:26:21;10.00;;;9.00;;
4794;SDS011;2411;47.060;15.064;2023-06-26T00:28:49;9.80;;;8.93;;
4794;SDS011;2411;47.060;15.064;2023-06-26T00:31:17;10.77;;;9.27;;
4794;SDS011;2411;47.060;15.064;2023-06-26T00:33:45;9.87;;;8.93;;
4794;SDS011;2411;47.060;15.064;2023-06-26T00:36:12;9.30;;;8.40;;
4794;SDS011;2411;47.060;15.064;2023-06-26T00:38:39;12.20;;;11.00;;
4794;SDS011;2411;47.060;15.064;2023-06-26T00:41:07;11.33;;;9.47;;
4794;SDS011;2411;47.060;15.064;2023-06-26T00:43:39;10.67;;;9.67;;
4794;SDS011;2411;47.060;15.064;2023-06-26T00:46:12;9.30;;;8.40;;
4794;SDS011;2411;47.060;15.064;2023-06-26T00:48:41;10.70;;;9.60;;
4794;SDS011;2411;47.060;15.064;2023-06-26T00:51:12;10.50;;;9.10;;
4794;SDS011;2411;47.060;15.064;2023-06-26T00:53:39;10.03;;;9.07;;
4794;SDS011;2411;47.060;15.064;2023-06-26T00:56:07;10.27;;;9.17;;
4794;SDS011;2411;47.060;15.064;2023-06-26T00:58:35;11.23;;;8.13;;
4794;SDS011;2411;47.060;15.064;2023-06-26T01:01:02;10.47;;;9.47;;
4794;SDS011;2411;47.060;15.064;2023-06-26T01:03:32;13.77;;;9.17;;
4794;SDS011;2411;47.060;15.064;2023-06-26T01:05:59;12.10;;;9.87;;
4794;SDS011;2411;47.060;15.064;2023-06-26T01:08:27;11.20;;;10.00;;
4794;SDS011;2411;47.060;15.064;2023-06-26T01:10:56;11.50;;;9.50;;
4794;SDS011;2411;47.060;15.064;2023-06-26T01:13:23;12.20;;;9.50;;
4794;SDS011;2411;47.060;15.064;2023-06-26T01:15:51;11.30;;;9.57;;
4794;SDS011;2411;47.060;15.064;2023-06-26T01:18:19;11.07;;;9.60;;
4794;SDS011;2411;47.060;15.064;2023-06-26T01:20:46;11.03;;;9.83;;
4794;SDS011;2411;47.060;15.064;2023-06-26T01:23:20;11.97;;;9.97;;
4794;SDS011;2411;47.060;15.064;2023-06-26T01:28:39;10.80;;;9.33;;
4794;SDS011;2411;47.060;15.064;2023-06-26T01:31:09;10.47;;;9.47;;
4794;SDS011;2411;47.060;15.064;2023-06-26T01:33:38;10.17;;;9.13;;
4794;SDS011;2411;47.060;15.064;2023-06-26T01:36:07;10.87;;;8.63;;
4794;SDS011;2411;47.060;15.064;2023-06-26T01:38:34;10.70;;;9.70;;
4794;SDS011;2411;47.060;15.064;2023-06-26T01:41:02;10.80;;;9.00;;
4794;SDS011;2411;47.060;15.064;2023-06-26T01:43:35;10.73;;;9.60;;
4794;SDS011;2411;47.060;15.064;2023-06-26T01:46:25;11.73;;;9.43;;
4794;SDS011;2411;47.060;15.064;2023-06-26T01:49:03;11.07;;;9.67;;
4794;SDS011;2411;47.060;15.064;2023-06-26T01:55:00;16.23;;;10.30;;
4794;SDS011;2411;47.060;15.064;2023-06-26T01:57:37;13.50;;;10.00;;
4794;SDS011;2411;47.060;15.064;2023-06-26T02:00:06;10.30;;;9.27;;
4794;SDS011;2411;47.060;15.064;2023-06-26T02:02:36;11.60;;;9.07;;
4794;SDS011;2411;47.060;15.064;2023-06-26T02:05:04;11.10;;;9.50;;
4794;SDS011;2411;47.060;15.064;2023-06-26T02:07:32;12.37;;;10.10;;
4794;SDS011;2411;47.060;15.064;2023-06-26T02:09:59;10.10;;;9.10;;
4794;SDS011;2411;47.060;15.064;2023-06-26T02:12:27;10.87;;;9.77;;
4794;SDS011;2411;47.060;15.064;2023-06-26T02:14:54;13.17;;;9.20;;
4794;SDS011;2411;47.060;15.064;2023-06-26T02:17:21;11.37;;;10.27;;
4794;SDS011;2411;47.060;15.064;2023-06-26T02:19:49;10.17;;;9.13;;
4794;SDS011;2411;47.060;15.064;2023-06-26T02:22:16;11.70;;;8.80;;
4794;SDS011;2411;47.060;15.064;2023-06-26T02:24:43;14.97;;;9.97;;
4794;SDS011;2411;47.060;15.064;2023-06-26T02:27:11;10.60;;;9.50;;
4794;SDS011;2411;47.060;15.064;2023-06-26T02:29:39;12.13;;;9.27;;
4794;SDS011;2411;47.060;15.064;2023-06-26T02:32:07;10.47;;;8.93;;
4794;SDS011;2411;47.060;15.064;2023-06-26T02:34:35;10.33;;;9.07;;
4794;SDS011;2411;47.060;15.064;2023-06-26T02:37:03;10.03;;;8.93;;
4794;SDS011;2411;47.060;15.064;2023-06-26T02:39:30;10.60;;;8.90;;
4794;SDS011;2411;47.060;15.064;2023-06-26T02:41:57;11.00;;;8.73;;
4794;SDS011;2411;47.060;15.064;2023-06-26T02:44:25;10.77;;;9.67;;
4794;SDS011;2411;47.060;15.064;2023-06-26T02:46:52;11.87;;;9.10;;
4794;SDS011;2411;47.060;15.064;2023-06-26T02:49:19;14.13;;;9.33;;
4794;SDS011;2411;47.060;15.064;2023-06-26T02:51:49;10.53;;;8.77;;
4794;SDS011;2411;47.060;15.064;2023-06-26T02:54:16;10.00;;;9.00;;
4794;SDS011;2411;47.060;15.064;2023-06-26T02:56:43;10.20;;;8.90;;
4794;SDS011;2411;47.060;15.064;2023-06-26T02:59:14;12.13;;;9.33;;
4794;SDS011;2411;47.060;15.064;2023-06-26T03:01:41;10.40;;;9.30;;
4794;SDS011;2411;47.060;15.064;2023-06-26T03:04:08;9.70;;;8.70;;
4794;SDS011;2411;47.060;15.064;2023-06-26T03:06:55;10.40;;;9.20;;
4794;SDS011;2411;47.060;15.064;2023-06-26T03:09:25;11.37;;;9.40;;
4794;SDS011;2411;47.060;15.064;2023-06-26T03:11:52;13.57;;;9.77;;
4794;SDS011;2411;47.060;15.064;2023-06-26T03:14:22;10.60;;;9.43;;
4794;SDS011;2411;47.060;15.064;2023-06-26T03:16:49;10.60;;;9.50;;
4794;SDS011;2411;47.060;15.064;2023-06-26T03:19:19;15.77;;;10.37;;
4794;SDS011;2411;47.060;15.064;2023-06-26T03:21:47;11.87;;;10.37;;
4794;SDS011;2411;47.060;15.064;2023-06-26T03:24:14;10.93;;;9.90;;
4794;SDS011;2411;47.060;15.064;2023-06-26T03:26:41;10.57;;;9.47;;
4794;SDS011;2411;47.060;15.064;2023-06-26T03:29:08;13.97;;;9.77;;
4794;SDS011;2411;47.060;15.064;2023-06-26T03:31:36;10.37;;;9.33;;
4794;SDS011;2411;47.060;15.064;2023-06-26T03:34:03;11.67;;;9.63;;
4794;SDS011;2411;47.060;15.064;2023-06-26T03:36:31;14.37;;;9.33;;
4794;SDS011;2411;47.060;15.064;2023-06-26T03:38:58;10.10;;;8.97;;
4794;SDS011;2411;47.060;15.064;2023-06-26T03:41:26;13.17;;;9.40;;
4794;SDS011;2411;47.060;15.064;2023-06-26T03:43:54;9.50;;;8.50;;
4794;SDS011;2411;47.060;15.064;2023-06-26T03:46:23;10.60;;;9.57;;
4794;SDS011;2411;47.060;15.064;2023-06-26T03:48:51;9.83;;;8.57;;
4794;SDS011;2411;47.060;15.064;2023-06-26T03:51:19;10.30;;;8.77;;
4794;SDS011;2411;47.060;15.064;2023-06-26T03:53:46;11.13;;;8.53;;
4794;SDS011;2411;47.060;15.064;2023-06-26T03:56:13;10.17;;;8.30;;
4794;SDS011;2411;47.060;15.064;2023-06-26T03:58:41;13.90;;;9.13;;
4794;SDS011;2411;47.060;15.064;2023-06-26T04:01:08;10.30;;;8.50;;
4794;SDS011;2411;47.060;15.064;2023-06-26T04:03:35;10.03;;;8.50;;
4794;SDS011;2411;47.060;15.064;2023-06-26T04:06:03;9.10;;;8.20;;
4794;SDS011;2411;47.060;15.064;2023-06-26T04:08:30;8.93;;;8.13;;
4794;SDS011;2411;47.060;15.064;2023-06-26T04:10:58;9.30;;;8.40;;
4794;SDS011;2411;47.060;15.064;2023-06-26T04:13:25;9.13;;;8.20;;
4794;SDS011;2411;47.060;15.064;2023-06-26T04:15:53;8.80;;;8.00;;
4794;SDS011;2411;47.060;15.064;2023-06-26T04:18:20;10.00;;;9.00;;
4794;SDS011;2411;47.060;15.064;2023-06-26T04:23:38;9.50;;;8.60;;
4794;SDS011;2411;47.060;15.064;2023-06-26T04:26:07;8.40;;;7.60;;
4794;SDS011;2411;47.060;15.064;2023-06-26T04:28:35;9.77;;;8.77;;
4794;SDS011;2411;47.060;15.064;2023-06-26T04:31:03;9.10;;;8.20;;
4794;SDS011;2411;47.060;15.064;2023-06-26T04:33:30;10.73;;;8.20;;
4794;SDS011;2411;47.060;15.064;2023-06-26T04:35:58;10.70;;;9.30;;
4794;SDS011;2411;47.060;15.064;2023-06-26T04:38:31;9.57;;;8.67;;
4794;SDS011;2411;47.060;15.064;2023-06-26T04:40:59;9.40;;;8.40;;
4794;SDS011;2411;47.060;15.064;2023-06-26T04:43:27;8.90;;;7.47;;
4794;SDS011;2411;47.060;15.064;2023-06-26T04:45:55;13.80;;;8.77;;
4794;SDS011;2411;47.060;15.064;2023-06-26T04:48:23;9.27;;;8.37;;
4794;SDS011;2411;47.060;15.064;2023-06-26T04:50:50;9.90;;;9.00;;
4794;SDS011;2411;47.060;15.064;2023-06-26T04:53:21;9.70;;;8.10;;
4794;SDS011;2411;47.060;15.064;2023-06-26T04:55:50;10.37;;;8.40;;
4794;SDS011;2411;47.060;15.064;2023-06-26T04:58:18;9.20;;;8.20;;
4794;SDS011;2411;47.060;15.064;2023-06-26T05:00:46;11.20;;;8.97;;
4794;SDS011;2411;47.060;15.064;2023-06-26T05:03:14;10.03;;;8.97;;
4794;SDS011;2411;47.060;15.064;2023-06-26T05:05:44;9.07;;;8.13;;
4794;SDS011;2411;47.060;15.064;2023-06-26T05:08:18;8.87;;;7.97;;
4794;SDS011;2411;47.060;15.064;2023-06-26T05:10:50;8.90;;;8.00;;
4794;SDS011;2411;47.060;15.064;2023-06-26T05:13:17;8.90;;;8.10;;
4794;SDS011;2411;47.060;15.064;2023-06-26T05:15:46;11.33;;;8.73;;
4794;SDS011;2411;47.060;15.064;2023-06-26T05:18:13;9.00;;;8.10;;
4794;SDS011;2411;47.060;15.064;2023-06-26T05:20:41;8.53;;;7.63;;
4794;SDS011;2411;47.060;15.064;2023-06-26T05:23:09;8.90;;;8.00;;
4794;SDS011;2411;47.060;15.064;2023-06-26T05:25:38;9.10;;;8.17;;
4794;SDS011;2411;47.060;15.064;2023-06-26T05:28:06;8.43;;;7.53;;
4794;SDS011;2411;47.060;15.064;2023-06-26T05:30:37;8.93;;;8.13;;
4794;SDS011;2411;47.060;15.064;2023-06-26T05:33:05;17.17;;;7.30;;
4794;SDS011;2411;47.060;15.064;2023-06-26T05:35:33;8.20;;;7.40;;
4794;SDS011;2411;47.060;15.064;2023-06-26T05:38:03;8.73;;;7.87;;
4794;SDS011;2411;47.060;15.064;2023-06-26T05:40:30;10.10;;;8.43;;
4794;SDS011;2411;47.060;15.064;2023-06-26T05:43:16;12.27;;;8.00;;
4794;SDS011;2411;47.060;15.064;2023-06-26T05:45:52;9.27;;;8.37;;
4794;SDS011;2411;47.060;15.064;2023-06-26T05:48:20;12.87;;;9.00;;
4794;SDS011;2411;47.060;15.064;2023-06-26T05:50:47;10.80;;;8.73;;
4794;SDS011;2411;47.060;15.064;2023-06-26T05:53:15;11.57;;;8.47;;
4794;SDS011;2411;47.060;15.064;2023-06-26T05:55:43;9.93;;;8.00;;
4794;SDS011;2411;47.060;15.064;2023-06-26T05:58:10;9.00;;;8.10;;
4794;SDS011;2411;47.060;15.064;2023-06-26T06:00:39;8.53;;;7.43;;
4794;SDS011;2411;47.060;15.064;2023-06-26T06:03:09;10.10;;;8.03;;
4794;SDS011;2411;47.060;15.064;2023-06-26T06:05:37;9.73;;;8.73;;
4794;SDS011;2411;47.060;15.064;2023-06-26T06:08:23;9.50;;;8.53;;
4794;SDS011;2411;47.060;15.064;2023-06-26T06:10:50;8.93;;;7.70;;
4794;SDS011;2411;47.060;15.064;2023-06-26T06:13:17;9.20;;;8.17;;
4794;SDS011;2411;47.060;15.064;2023-06-26T06:15:45;9.77;;;8.63;;
4794;SDS011;2411;47.060;15.064;2023-06-26T06:18:12;8.83;;;7.73;;
4794;SDS011;2411;47.060;15.064;2023-06-26T06:20:39;16.43;;;8.60;;
4794;SDS011;2411;47.060;15.064;2023-06-26T06:23:07;8.67;;;7.87;;
4794;SDS011;2411;47.060;15.064;2023-06-26T06:25:34;8.60;;;7.63;;
4794;SDS011;2411;47.060;15.064;2023-06-26T06:28:02;11.80;;;8.60;;
4794;SDS011;2411;47.060;15.064;2023-06-26T06:30:31;9.10;;;7.97;;
4794;SDS011;2411;47.060;15.064;2023-06-26T06:33:10;9.93;;;8.83;;
4794;SDS011;2411;47.060;15.064;2023-06-26T06:35:38;10.70;;;8.53;;
4794;SDS011;2411;47.060;15.064;2023-06-26T06:38:05;9.40;;;8.40;;
4794;SDS011;2411;47.060;15.064;2023-06-26T06:40:33;11.37;;;10.00;;
4794;SDS011;2411;47.060;15.064;2023-06-26T06:43:00;11.67;;;8.63;;
4794;SDS011;2411;47.060;15.064;2023-06-26T06:45:27;9.27;;;8.17;;
4794;SDS011;2411;47.060;15.064;2023-06-26T06:47:54;11.17;;;8.53;;
4794;SDS011;2411;47.060;15.064;2023-06-26T06:50:22;15.80;;;9.30;;
4794;SDS011;2411;47.060;15.064;2023-06-26T06:52:49;10.57;;;8.63;;
4794;SDS011;2411;47.060;15.064;2023-06-26T06:55:17;10.93;;;8.30;;
4794;SDS011;2411;47.060;15.064;2023-06-26T06:57:44;10.73;;;7.70;;
4794;SDS011;2411;47.060;15.064;2023-06-26T07:00:12;8.90;;;7.70;;
4794;SDS011;2411;47.060;15.064;2023-06-26T07:02:44;8.83;;;7.73;;
4794;SDS011;2411;47.060;15.064;2023-06-26T07:05:12;9.30;;;8.10;;
4794;SDS011;2411;47.060;15.064;2023-06-26T07:07:40;11.57;;;7.80;;
4794;SDS011;2411;47.060;15.064;2023-06-26T07:10:08;8.03;;;7.23;;
4794;SDS011;2411;47.060;15.064;2023-06-26T07:12:37;10.27;;;7.90;;
4794;SDS011;2411;47.060;15.064;2023-06-26T07:15:05;8.80;;;7.93;;
4794;SDS011;2411;47.060;15.064;2023-06-26T07:17:34;9.00;;;7.30;;
4794;SDS011;2411;47.060;15.064;2023-06-26T07:20:02;13.43;;;8.40;;
4794;SDS011;2411;47.060;15.064;2023-06-26T07:22:36;8.90;;;8.07;;
4794;SDS011;2411;47.060;15.064;2023-06-26T07:25:04;11.40;;;7.60;;
4794;SDS011;2411;47.060;15.064;2023-06-26T07:27:39;9.80;;;7.37;;
4794;SDS011;2411;47.060;15.064;2023-06-26T07:30:07;11.30;;;6.77;;
4794;SDS011;2411;47.060;15.064;2023-06-26T07:32:36;9.77;;;7.90;;
4794;SDS011;2411;47.060;15.064;2023-06-26T07:35:04;8.30;;;7.50;;
4794;SDS011;2411;47.060;15.064;2023-06-26T07:37:32;8.37;;;7.30;;
4794;SDS011;2411;47.060;15.064;2023-06-26T07:39:59;7.83;;;7.03;;
4794;SDS011;2411;47.060;15.064;2023-06-26T07:42:26;9.07;;;7.20;;
4794;SDS011;2411;47.060;15.064;2023-06-26T07:44:54;7.40;;;6.70;;
4794;SDS011;2411;47.060;15.064;2023-06-26T07:47:21;8.77;;;7.60;;
4794;SDS011;2411;47.060;15.064;2023-06-26T07:49:48;8.30;;;7.50;;
4794;SDS011;2411;47.060;15.064;2023-06-26T07:52:16;8.30;;;7.50;;
4794;SDS011;2411;47.060;15.064;2023-06-26T07:54:44;8.10;;;7.30;;
4794;SDS011;2411;47.060;15.064;2023-06-26T07:57:12;8.40;;;7.20;;
4794;SDS011;2411;47.060;15.064;2023-06-26T07:59:39;8.33;;;7.53;;
4794;SDS011;2411;47.060;15.064;2023-06-26T08:02:07;7.33;;;6.63;;
4794;SDS011;2411;47.060;15.064;2023-06-26T08:04:34;8.97;;;7.20;;
4794;SDS011;2411;47.060;15.064;2023-06-26T08:07:02;7.10;;;6.50;;
4794;SDS011;2411;47.060;15.064;2023-06-26T08:09:30;7.00;;;6.30;;
4794;SDS011;2411;47.060;15.064;2023-06-26T08:11:58;7.40;;;6.70;;
4794;SDS011;2411;47.060;15.064;2023-06-26T08:14:26;7.63;;;6.83;;
4794;SDS011;2411;47.060;15.064;2023-06-26T08:16:53;7.10;;;6.50;;
4794;SDS011;2411;47.060;15.064;2023-06-26T08:19:21;13.17;;;7.23;;
4794;SDS011;2411;47.060;15.064;2023-06-26T08:21:48;7.53;;;6.83;;
4794;SDS011;2411;47.060;15.064;2023-06-26T08:24:16;10.33;;;7.60;;
4794;SDS011;2411;47.060;15.064;2023-06-26T08:26:45;8.57;;;7.73;;
4794;SDS011;2411;47.060;15.064;2023-06-26T08:29:13;6.67;;;6.17;;
4794;SDS011;2411;47.060;15.064;2023-06-26T08:31:41;7.00;;;6.30;;
4794;SDS011;2411;47.060;15.064;2023-06-26T08:34:10;7.77;;;7.07;;
4794;SDS011;2411;47.060;15.064;2023-06-26T08:36:37;7.60;;;6.20;;
4794;SDS011;2411;47.060;15.064;2023-06-26T08:39:05;7.60;;;6.50;;
4794;SDS011;2411;47.060;15.064;2023-06-26T08:41:32;7.37;;;6.37;;
4794;SDS011;2411;47.060;15.064;2023-06-26T08:44:00;8.07;;;7.27;;
4794;SDS011;2411;47.060;15.064;2023-06-26T08:46:28;6.93;;;6.20;;
4794;SDS011;2411;47.060;15.064;2023-06-26T08:48:56;10.80;;;6.87;;
4794;SDS011;2411;47.060;15.064;2023-06-26T08:51:28;6.50;;;5.90;;
4794;SDS011;2411;47.060;15.064;2023-06-26T08:54:00;6.70;;;6.00;;
4794;SDS011;2411;47.060;15.064;2023-06-26T08:56:32;6.07;;;5.57;;
4794;SDS011;2411;47.060;15.064;2023-06-26T08:59:07;6.10;;;5.53;;
4794;SDS011;2411;47.060;15.064;2023-06-26T09:01:37;6.50;;;5.90;;
4794;SDS011;2411;47.060;15.064;2023-06-26T09:04:05;5.83;;;5.30;;
4794;SDS011;2411;47.060;15.064;2023-06-26T09:06:33;6.70;;;6.10;;
4794;SDS011;2411;47.060;15.064;2023-06-26T09:09:01;6.10;;;5.50;;
4794;SDS011;2411;47.060;15.064;2023-06-26T09:11:30;6.00;;;5.47;;
4794;SDS011;2411;47.060;15.064;2023-06-26T09:13:58;6.23;;;5.73;;
4794;SDS011;2411;47.060;15.064;2023-06-26T09:16:26;5.80;;;5.10;;
4794;SDS011;2411;47.060;15.064;2023-06-26T09:18:55;6.40;;;5.90;;
4794;SDS011;2411;47.060;15.064;2023-06-26T09:21:23;7.93;;;5.77;;
4794;SDS011;2411;47.060;15.064;2023-06-26T09:23:51;6.37;;;5.67;;
4794;SDS011;2411;47.060;15.064;2023-06-26T09:26:23;11.53;;;5.90;;
4794;SDS011;2411;47.060;15.064;2023-06-26T09:28:52;6.70;;;5.20;;
4794;SDS011;2411;47.060;15.064;2023-06-26T09:31:19;5.83;;;5.33;;
4794;SDS011;2411;47.060;15.064;2023-06-26T09:34:07;6.83;;;6.03;;
4794;SDS011;2411;47.060;15.064;2023-06-26T09:36:34;7.37;;;5.67;;
4794;SDS011;2411;47.060;15.064;2023-06-26T09:39:06;5.97;;;5.37;;
4794;SDS011;2411;47.060;15.064;2023-06-26T09:41:38;6.17;;;5.67;;
4794;SDS011;2411;47.060;15.064;2023-06-26T09:44:10;6.70;;;6.10;;
4794;SDS011;2411;47.060;15.064;2023-06-26T09:46:38;7.00;;;6.40;;
4794;SDS011;2411;47.060;15.064;2023-06-26T09:49:06;6.60;;;5.70;;
4794;SDS011;2411;47.060;15.064;2023-06-26T09:51:35;5.80;;;5.30;;
4794;SDS011;2411;47.060;15.064;2023-06-26T09:54:04;6.70;;;6.10;;
4794;SDS011;2411;47.060;15.064;2023-06-26T09:56:32;6.47;;;5.83;;
4794;SDS011;2411;47.060;15.064;2023-06-26T09:59:01;6.47;;;5.87;;
4794;SDS011;2411;47.060;15.064;2023-06-26T10:01:31;6.50;;;5.40;;
4794;SDS011;2411;47.060;15.064;2023-06-26T10:03:59;9.20;;;5.47;;
4794;SDS011;2411;47.060;15.064;2023-06-26T10:06:33;6.80;;;6.17;;
4794;SDS011;2411;47.060;15.064;2023-06-26T10:09:02;6.93;;;6.33;;
4794;SDS011;2411;47.060;15.064;2023-06-26T10:12:16;6.33;;;5.73;;
4794;SDS011;2411;47.060;15.064;2023-06-26T10:14:37;6.27;;;5.67;;
4794;SDS011;2411;47.060;15.064;2023-06-26T10:17:07;5.83;;;5.33;;
4794;SDS011;2411;47.060;15.064;2023-06-26T10:19:40;6.43;;;5.83;;
4794;SDS011;2411;47.060;15.064;2023-06-26T10:22:20;9.47;;;5.73;;
4794;SDS011;2411;47.060;15.064;2023-06-26T10:24:51;6.40;;;5.90;;
4794;SDS011;2411;47.060;15.064;2023-06-26T10:27:21;5.80;;;5.30;;
4794;SDS011;2411;47.060;15.064;2023-06-26T10:29:54;6.30;;;5.73;;
4794;SDS011;2411;47.060;15.064;2023-06-26T10:32:27;6.50;;;5.97;;
4794;SDS011;2411;47.060;15.064;2023-06-26T10:34:55;5.20;;;4.80;;
4794;SDS011;2411;47.060;15.064;2023-06-26T10:37:42;5.80;;;5.30;;
4794;SDS011;2411;47.060;15.064;2023-06-26T10:40:11;5.80;;;5.30;;
4794;SDS011;2411;47.060;15.064;2023-06-26T10:42:40;6.50;;;5.70;;
4794;SDS011;2411;47.060;15.064;2023-06-26T10:47:43;6.13;;;5.63;;
4794;SDS011;2411;47.060;15.064;2023-06-26T10:50:17;5.10;;;4.60;;
4794;SDS011;2411;47.060;15.064;2023-06-26T10:53:09;5.60;;;5.10;;
4794;SDS011;2411;47.060;15.064;2023-06-26T10:56:04;5.90;;;5.40;;
4794;SDS011;2411;47.060;15.064;2023-06-26T11:01:22;5.73;;;5.20;;
4794;SDS011;2411;47.060;15.064;2023-06-26T11:06:30;6.23;;;5.57;;
4794;SDS011;2411;47.060;15.064;2023-06-26T11:09:00;6.07;;;5.57;;
4794;SDS011;2411;47.060;15.064;2023-06-26T11:11:56;14.17;;;7.40;;
4794;SDS011;2411;47.060;15.064;2023-06-26T11:14:26;5.60;;;5.10;;
4794;SDS011;2411;47.060;15.064;2023-06-26T11:16:57;5.60;;;5.20;;
4794;SDS011;2411;47.060;15.064;2023-06-26T11:19:26;5.30;;;4.90;;
4794;SDS011;2411;47.060;15.064;2023-06-26T11:22:01;7.90;;;5.33;;
4794;SDS011;2411;47.060;15.064;2023-06-26T11:24:30;5.23;;;4.73;;
4794;SDS011;2411;47.060;15.064;2023-06-26T11:27:00;5.67;;;5.23;;
4794;SDS011;2411;47.060;15.064;2023-06-26T11:29:29;5.60;;;4.83;;
4794;SDS011;2411;47.060;15.064;2023-06-26T11:32:01;6.70;;;6.10;;
4794;SDS011;2411;47.060;15.064;2023-06-26T11:34:32;5.90;;;5.40;;
4794;SDS011;2411;47.060;15.064;2023-06-26T11:37:19;6.33;;;5.73;;
4794;SDS011;2411;47.060;15.064;2023-06-26T11:39:47;5.40;;;4.90;;
4794;SDS011;2411;47.060;15.064;2023-06-26T11:42:15;5.40;;;4.90;;
4794;SDS011;2411;47.060;15.064;2023-06-26T11:44:42;4.60;;;4.30;;
4794;SDS011;2411;47.060;15.064;2023-06-26T11:47:17;5.20;;;4.70;;
4794;SDS011;2411;47.060;15.064;2023-06-26T11:49:47;7.20;;;5.70;;
4794;SDS011;2411;47.060;15.064;2023-06-26T11:52:16;6.00;;;5.50;;
4794;SDS011;2411;47.060;15.064;2023-06-26T11:54:44;5.17;;;4.67;;
4794;SDS011;2411;47.060;15.064;2023-06-26T11:57:15;5.77;;;5.27;;
4794;SDS011;2411;47.060;15.064;2023-06-26T11:59:44;5.20;;;4.67;;
4794;SDS011;2411;47.060;15.064;2023-06-26T12:02:13;5.40;;;4.90;;
4794;SDS011;2411;47.060;15.064;2023-06-26T12:04:42;5.37;;;4.87;;
4794;SDS011;2411;47.060;15.064;2023-06-26T12:07:11;5.40;;;4.47;;
4794;SDS011;2411;47.060;15.064;2023-06-26T12:09:45;5.53;;;5.13;;
4794;SDS011;2411;47.060;15.064;2023-06-26T12:12:14;13.60;;;4.80;;
4794;SDS011;2411;47.060;15.064;2023-06-26T12:14:45;5.63;;;5.00;;
4794;SDS011;2411;47.060;15.064;2023-06-26T12:17:13;5.00;;;4.50;;
4794;SDS011;2411;47.060;15.064;2023-06-26T12:19:44;5.67;;;5.17;;
4794;SDS011;2411;47.060;15.064;2023-06-26T12:22:18;9.83;;;4.87;;
4794;SDS011;2411;47.060;15.064;2023-06-26T12:24:46;6.30;;;4.80;;
4794;SDS011;2411;47.060;15.064;2023-06-26T12:27:15;6.63;;;5.27;;
4794;SDS011;2411;47.060;15.064;2023-06-26T12:29:53;4.90;;;4.40;;
4794;SDS011;2411;47.060;15.064;2023-06-26T12:32:22;6.70;;;5.47;;
4794;SDS011;2411;47.060;15.064;2023-06-26T12:34:51;4.90;;;4.47;;
4794;SDS011;2411;47.060;15.064;2023-06-26T12:37:19;6.50;;;4.20;;
4794;SDS011;2411;47.060;15.064;2023-06-26T12:39:53;5.27;;;4.87;;
4794;SDS011;2411;47.060;15.064;2023-06-26T12:42:23;5.70;;;4.87;;
4794;SDS011;2411;47.060;15.064;2023-06-26T12:44:55;5.20;;;4.70;;
4794;SDS011;2411;47.060;15.064;2023-06-26T12:47:24;5.37;;;4.87;;
4794;SDS011;2411;47.060;15.064;2023-06-26T12:49:54;5.60;;;5.10;;
4794;SDS011;2411;47.060;15.064;2023-06-26T12:52:21;24.60;;;7.67;;
4794;SDS011;2411;47.060;15.064;2023-06-26T12:54:52;35.27;;;11.50;;
4794;SDS011;2411;47.060;15.064;2023-06-26T12:57:21;8.93;;;6.50;;
4794;SDS011;2411;47.060;15.064;2023-06-26T12:59:48;8.37;;;5.40;;
4794;SDS011;2411;47.060;15.064;2023-06-26T13:02:16;96.93;;;26.77;;
4794;SDS011;2411;47.060;15.064;2023-06-26T13:04:44;157.60;;;38.33;;
4794;SDS011;2411;47.060;15.064;2023-06-26T13:07:11;188.97;;;38.73;;
4794;SDS011;2411;47.060;15.064;2023-06-26T13:09:39;18.93;;;8.53;;
4794;SDS011;2411;47.060;15.064;2023-06-26T13:12:08;5.40;;;4.93;;
4794;SDS011;2411;47.060;15.064;2023-06-26T13:14:35;12.50;;;6.50;;
4794;SDS011;2411;47.060;15.064;2023-06-26T13:17:03;5.70;;;5.10;;
4794;SDS011;2411;47.060;15.064;2023-06-26T13:19:35;4.80;;;4.33;;
4794;SDS011;2411;47.060;15.064;2023-06-26T13:22:02;5.33;;;4.93;;
4794;SDS011;2411;47.060;15.064;2023-06-26T13:24:30;5.33;;;4.83;;
4794;SDS011;2411;47.060;15.064;2023-06-26T13:26:57;5.37;;;4.50;;
4794;SDS011;2411;47.060;15.064;2023-06-26T13:29:24;4.70;;;4.30;;
4794;SDS011;2411;47.060;15.064;2023-06-26T13:31:52;4.83;;;4.33;;
4794;SDS011;2411;47.060;15.064;2023-06-26T13:34:24;4.73;;;4.23;;
4794;SDS011;2411;47.060;15.064;2023-06-26T13:36:54;4.47;;;4.17;;
4794;SDS011;2411;47.060;15.064;2023-06-26T13:39:22;5.63;;;4.20;;
4794;SDS011;2411;47.060;15.064;2023-06-26T13:41:50;4.20;;;3.90;;
4794;SDS011;2411;47.060;15.064;2023-06-26T13:44:17;5.63;;;4.57;;
4794;SDS011;2411;47.060;15.064;2023-06-26T13:47:04;5.53;;;4.20;;
4794;SDS011;2411;47.060;15.064;2023-06-26T13:49:33;7.17;;;4.57;;
4794;SDS011;2411;47.060;15.064;2023-06-26T13:52:00;4.80;;;4.40;;
4794;SDS011;2411;47.060;15.064;2023-06-26T13:54:28;5.07;;;4.57;;
4794;SDS011;2411;47.060;15.064;2023-06-26T13:56:55;5.50;;;5.00;;
4794;SDS011;2411;47.060;15.064;2023-06-26T13:59:23;4.80;;;4.40;;
4794;SDS011;2411;47.060;15.064;2023-06-26T14:01:54;5.10;;;4.67;;
4794;SDS011;2411;47.060;15.064;2023-06-26T14:04:21;5.53;;;5.03;;
4794;SDS011;2411;47.060;15.064;2023-06-26T14:06:48;6.77;;;4.93;;
4794;SDS011;2411;47.060;15.064;2023-06-26T14:09:16;4.47;;;4.17;;
4794;SDS011;2411;47.060;15.064;2023-06-26T14:11:44;5.00;;;4.60;;
4794;SDS011;2411;47.060;15.064;2023-06-26T14:14:11;5.63;;;5.13;;
4794;SDS011;2411;47.060;15.064;2023-06-26T14:16:38;4.33;;;3.97;;
4794;SDS011;2411;47.060;15.064;2023-06-26T14:19:09;4.40;;;4.10;;
4794;SDS011;2411;47.060;15.064;2023-06-26T14:21:41;5.80;;;5.30;;
4794;SDS011;2411;47.060;15.064;2023-06-26T14:24:09;5.30;;;4.90;;
4794;SDS011;2411;47.060;15.064;2023-06-26T14:26:36;8.10;;;5.30;;
4794;SDS011;2411;47.060;15.064;2023-06-26T14:29:05;5.63;;;5.13;;
4794;SDS011;2411;47.060;15.064;2023-06-26T14:31:33;5.73;;;4.40;;
4794;SDS011;2411;47.060;15.064;2023-06-26T14:34:00;5.20;;;4.80;;
4794;SDS011;2411;47.060;15.064;2023-06-26T14:36:29;5.60;;;5.00;;
4794;SDS011;2411;47.060;15.064;2023-06-26T14:39:00;7.10;;;4.17;;
4794;SDS011;2411;47.060;15.064;2023-06-26T14:41:28;5.70;;;5.00;;
4794;SDS011;2411;47.060;15.064;2023-06-26T14:43:56;5.30;;;4.90;;
4794;SDS011;2411;47.060;15.064;2023-06-26T14:46:24;5.40;;;4.93;;
4794;SDS011;2411;47.060;15.064;2023-06-26T14:48:52;5.77;;;5.27;;
4794;SDS011;2411;47.060;15.064;2023-06-26T14:51:22;5.80;;;5.30;;
4794;SDS011;2411;47.060;15.064;2023-06-26T14:53:49;5.90;;;4.90;;
4794;SDS011;2411;47.060;15.064;2023-06-26T14:56:16;5.87;;;5.27;;
4794;SDS011;2411;47.060;15.064;2023-06-26T14:58:44;5.57;;;5.10;;
4794;SDS011;2411;47.060;15.064;2023-06-26T15:01:13;5.40;;;5.00;;
4794;SDS011;2411;47.060;15.064;2023-06-26T15:03:42;5.70;;;5.20;;
4794;SDS011;2411;47.060;15.064;2023-06-26T15:06:09;5.87;;;5.27;;
4794;SDS011;2411;47.060;15.064;2023-06-26T15:08:37;5.60;;;5.20;;
4794;SDS011;2411;47.060;15.064;2023-06-26T15:11:05;5.57;;;5.07;;
4794;SDS011;2411;47.060;15.064;2023-06-26T15:13:32;5.87;;;5.20;;
4794;SDS011;2411;47.060;15.064;2023-06-26T15:16:00;7.80;;;5.07;;
4794;SDS011;2411;47.060;15.064;2023-06-26T15:18:27;8.17;;;5.33;;
4794;SDS011;2411;47.060;15.064;2023-06-26T15:20:54;6.77;;;4.87;;
4794;SDS011;2411;47.060;15.064;2023-06-26T15:23:22;7.70;;;6.30;;
4794;SDS011;2411;47.060;15.064;2023-06-26T15:25:49;5.73;;;5.23;;